sensor_id;sensor_type;location;lat;lon;timestamp;P1;durP1;ratioP1;P2;durP2;ratioP2
79478;SDS011;68943;49.472;17.970;2023-06-24T00:02:11;2.33;;;1.60;;
79478;SDS011;68943;49.472;17.970;2023-06-24T00:04:37;2.38;;;2.15;;
79478;SDS011;68943;49.472;17.970;2023-06-24T00:07:04;2.72;;;1.45;;
79478;SDS011;68943;49.472;17.970;2023-06-24T00:09:30;4.95;;;1.92;;
79478;SDS011;68943;49.472;17.970;2023-06-24T00:11:59;2.75;;;1.95;;
79478;SDS011;68943;49.472;17.970;2023-06-24T00:14:25;3.33;;;3.03;;
79478;SDS011;68943;49.472;17.970;2023-06-24T00:16:52;2.00;;;0.98;;
79478;SDS011;68943;49.472;17.970;2023-06-24T00:19:22;4.78;;;2.75;;
79478;SDS011;68943;49.472;17.970;2023-06-24T00:21:49;2.53;;;1.90;;
79478;SDS011;68943;49.472;17.970;2023-06-24T00:24:21;5.38;;;2.35;;
79478;SDS011;68943;49.472;17.970;2023-06-24T00:26:54;2.30;;;1.63;;
79478;SDS011;68943;49.472;17.970;2023-06-24T00:29:20;2.42;;;1.45;;
79478;SDS011;68943;49.472;17.970;2023-06-24T00:31:46;2.92;;;2.10;;
79478;SDS011;68943;49.472;17.970;2023-06-24T00:34:12;2.40;;;1.35;;
79478;SDS011;68943;49.472;17.970;2023-06-24T00:36:39;1.90;;;1.50;;
79478;SDS011;68943;49.472;17.970;2023-06-24T00:39:05;2.50;;;2.22;;
79478;SDS011;68943;49.472;17.970;2023-06-24T00:41:32;3.72;;;2.30;;
79478;SDS011;68943;49.472;17.970;2023-06-24T00:43:58;2.50;;;1.88;;
79478;SDS011;68943;49.472;17.970;2023-06-24T00:46:24;2.10;;;1.20;;
79478;SDS011;68943;49.472;17.970;2023-06-24T00:48:54;5.28;;;1.25;;
79478;SDS011;68943;49.472;17.970;2023-06-24T00:51:20;3.17;;;1.55;;
79478;SDS011;68943;49.472;17.970;2023-06-24T00:53:52;1.70;;;1.17;;
79478;SDS011;68943;49.472;17.970;2023-06-24T00:56:18;1.85;;;1.25;;
79478;SDS011;68943;49.472;17.970;2023-06-24T00:58:45;4.38;;;1.70;;
79478;SDS011;68943;49.472;17.970;2023-06-24T01:01:12;2.30;;;1.55;;
79478;SDS011;68943;49.472;17.970;2023-06-24T01:03:38;2.45;;;2.00;;
79478;SDS011;68943;49.472;17.970;2023-06-24T01:06:05;1.85;;;1.45;;
79478;SDS011;68943;49.472;17.970;2023-06-24T01:08:31;2.03;;;1.83;;
79478;SDS011;68943;49.472;17.970;2023-06-24T01:10:57;2.60;;;1.88;;
79478;SDS011;68943;49.472;17.970;2023-06-24T01:13:23;2.05;;;1.75;;
79478;SDS011;68943;49.472;17.970;2023-06-24T01:15:49;3.30;;;2.20;;
79478;SDS011;68943;49.472;17.970;2023-06-24T01:21:05;2.17;;;1.48;;
79478;SDS011;68943;49.472;17.970;2023-06-24T01:39:31;2.35;;;2.15;;
79478;SDS011;68943;49.472;17.970;2023-06-24T01:42:01;3.47;;;1.83;;
79478;SDS011;68943;49.472;17.970;2023-06-24T01:44:29;3.08;;;1.98;;
79478;SDS011;68943;49.472;17.970;2023-06-24T01:46:55;2.72;;;1.30;;
79478;SDS011;68943;49.472;17.970;2023-06-24T01:49:23;1.60;;;1.33;;
79478;SDS011;68943;49.472;17.970;2023-06-24T01:51:49;1.58;;;1.42;;
79478;SDS011;68943;49.472;17.970;2023-06-24T01:54:16;1.85;;;0.75;;
79478;SDS011;68943;49.472;17.970;2023-06-24T01:56:44;2.03;;;1.15;;
79478;SDS011;68943;49.472;17.970;2023-06-24T01:59:12;2.55;;;1.63;;
79478;SDS011;68943;49.472;17.970;2023-06-24T02:01:39;2.60;;;1.17;;
79478;SDS011;68943;49.472;17.970;2023-06-24T02:04:07;2.25;;;1.75;;
79478;SDS011;68943;49.472;17.970;2023-06-24T02:06:35;6.05;;;2.80;;
79478;SDS011;68943;49.472;17.970;2023-06-24T02:09:02;3.00;;;1.15;;
79478;SDS011;68943;49.472;17.970;2023-06-24T02:11:29;2.78;;;1.88;;
79478;SDS011;68943;49.472;17.970;2023-06-24T02:13:56;1.92;;;1.67;;
79478;SDS011;68943;49.472;17.970;2023-06-24T02:16:25;1.20;;;0.80;;
79478;SDS011;68943;49.472;17.970;2023-06-24T02:18:51;2.38;;;1.92;;
79478;SDS011;68943;49.472;17.970;2023-06-24T02:21:18;1.55;;;0.98;;
79478;SDS011;68943;49.472;17.970;2023-06-24T02:23:45;1.63;;;0.93;;
79478;SDS011;68943;49.472;17.970;2023-06-24T02:26:12;2.03;;;1.13;;
79478;SDS011;68943;49.472;17.970;2023-06-24T02:28:38;2.17;;;1.98;;
79478;SDS011;68943;49.472;17.970;2023-06-24T02:31:05;1.85;;;1.73;;
79478;SDS011;68943;49.472;17.970;2023-06-24T02:33:31;1.75;;;1.45;;
79478;SDS011;68943;49.472;17.970;2023-06-24T02:35:57;2.00;;;0.77;;
79478;SDS011;68943;49.472;17.970;2023-06-24T02:38:23;2.08;;;1.52;;
79478;SDS011;68943;49.472;17.970;2023-06-24T02:40:49;2.17;;;1.77;;
79478;SDS011;68943;49.472;17.970;2023-06-24T02:43:17;2.72;;;1.55;;
79478;SDS011;68943;49.472;17.970;2023-06-24T02:45:46;1.75;;;1.33;;
79478;SDS011;68943;49.472;17.970;2023-06-24T02:48:13;1.52;;;1.00;;
79478;SDS011;68943;49.472;17.970;2023-06-24T02:50:39;1.95;;;1.27;;
79478;SDS011;68943;49.472;17.970;2023-06-24T02:55:34;1.52;;;0.95;;
79478;SDS011;68943;49.472;17.970;2023-06-24T02:58:01;1.63;;;1.02;;
79478;SDS011;68943;49.472;17.970;2023-06-24T03:00:27;1.58;;;1.48;;
79478;SDS011;68943;49.472;17.970;2023-06-24T03:02:59;1.67;;;1.27;;
79478;SDS011;68943;49.472;17.970;2023-06-24T03:05:25;3.53;;;2.80;;
79478;SDS011;68943;49.472;17.970;2023-06-24T03:07:52;1.75;;;1.48;;
79478;SDS011;68943;49.472;17.970;2023-06-24T03:10:18;1.67;;;1.58;;
79478;SDS011;68943;49.472;17.970;2023-06-24T03:12:44;2.00;;;1.85;;
79478;SDS011;68943;49.472;17.970;2023-06-24T03:15:10;2.33;;;1.17;;
79478;SDS011;68943;49.472;17.970;2023-06-24T03:17:36;1.40;;;0.90;;
79478;SDS011;68943;49.472;17.970;2023-06-24T03:20:03;1.60;;;0.82;;
79478;SDS011;68943;49.472;17.970;2023-06-24T03:22:29;0.77;;;0.60;;
79478;SDS011;68943;49.472;17.970;2023-06-24T03:24:56;3.58;;;1.85;;
79478;SDS011;68943;49.472;17.970;2023-06-24T03:27:22;1.67;;;1.52;;
79478;SDS011;68943;49.472;17.970;2023-06-24T03:29:48;1.92;;;1.23;;
79478;SDS011;68943;49.472;17.970;2023-06-24T03:32:14;2.08;;;1.88;;
79478;SDS011;68943;49.472;17.970;2023-06-24T03:34:41;1.50;;;1.35;;
79478;SDS011;68943;49.472;17.970;2023-06-24T03:37:09;1.73;;;1.58;;
79478;SDS011;68943;49.472;17.970;2023-06-24T03:39:35;2.75;;;0.90;;
79478;SDS011;68943;49.472;17.970;2023-06-24T03:42:01;2.47;;;1.33;;
79478;SDS011;68943;49.472;17.970;2023-06-24T03:44:27;1.65;;;1.40;;
79478;SDS011;68943;49.472;17.970;2023-06-24T03:46:53;1.38;;;1.27;;
79478;SDS011;68943;49.472;17.970;2023-06-24T03:49:19;1.55;;;1.45;;
79478;SDS011;68943;49.472;17.970;2023-06-24T03:51:45;1.35;;;1.25;;
79478;SDS011;68943;49.472;17.970;2023-06-24T03:54:11;2.55;;;1.13;;
79478;SDS011;68943;49.472;17.970;2023-06-24T03:56:37;1.38;;;1.00;;
79478;SDS011;68943;49.472;17.970;2023-06-24T03:59:03;6.50;;;1.35;;
79478;SDS011;68943;49.472;17.970;2023-06-24T04:01:29;1.83;;;1.55;;
79478;SDS011;68943;49.472;17.970;2023-06-24T04:03:57;1.85;;;1.50;;
79478;SDS011;68943;49.472;17.970;2023-06-24T04:06:23;1.80;;;1.58;;
79478;SDS011;68943;49.472;17.970;2023-06-24T04:08:49;1.55;;;1.45;;
79478;SDS011;68943;49.472;17.970;2023-06-24T04:11:17;1.75;;;1.20;;
79478;SDS011;68943;49.472;17.970;2023-06-24T04:13:44;2.35;;;1.45;;
79478;SDS011;68943;49.472;17.970;2023-06-24T04:16:10;2.38;;;0.80;;
79478;SDS011;68943;49.472;17.970;2023-06-24T04:18:36;1.20;;;1.10;;
79478;SDS011;68943;49.472;17.970;2023-06-24T04:21:04;1.73;;;1.38;;
79478;SDS011;68943;49.472;17.970;2023-06-24T04:23:31;1.13;;;0.82;;
79478;SDS011;68943;49.472;17.970;2023-06-24T04:25:57;3.90;;;1.52;;
79478;SDS011;68943;49.472;17.970;2023-06-24T04:28:24;1.88;;;1.25;;
79478;SDS011;68943;49.472;17.970;2023-06-24T04:30:50;1.38;;;1.17;;
79478;SDS011;68943;49.472;17.970;2023-06-24T04:33:16;2.20;;;2.00;;
79478;SDS011;68943;49.472;17.970;2023-06-24T04:35:42;2.97;;;1.42;;
79478;SDS011;68943;49.472;17.970;2023-06-24T04:38:09;1.13;;;0.93;;
79478;SDS011;68943;49.472;17.970;2023-06-24T04:40:36;1.25;;;1.10;;
79478;SDS011;68943;49.472;17.970;2023-06-24T04:43:02;1.67;;;1.00;;
79478;SDS011;68943;49.472;17.970;2023-06-24T04:45:28;1.73;;;1.23;;
79478;SDS011;68943;49.472;17.970;2023-06-24T04:47:54;1.73;;;1.10;;
79478;SDS011;68943;49.472;17.970;2023-06-24T04:50:20;2.03;;;1.83;;
79478;SDS011;68943;49.472;17.970;2023-06-24T04:52:51;2.28;;;1.08;;
79478;SDS011;68943;49.472;17.970;2023-06-24T04:55:18;2.58;;;1.73;;
79478;SDS011;68943;49.472;17.970;2023-06-24T04:57:44;2.63;;;1.25;;
79478;SDS011;68943;49.472;17.970;2023-06-24T05:00:11;1.80;;;1.42;;
79478;SDS011;68943;49.472;17.970;2023-06-24T05:02:37;1.42;;;1.33;;
79478;SDS011;68943;49.472;17.970;2023-06-24T05:05:04;1.80;;;1.48;;
79478;SDS011;68943;49.472;17.970;2023-06-24T05:07:30;2.95;;;2.67;;
79478;SDS011;68943;49.472;17.970;2023-06-24T05:09:56;2.13;;;1.92;;
79478;SDS011;68943;49.472;17.970;2023-06-24T05:12:22;2.13;;;1.85;;
79478;SDS011;68943;49.472;17.970;2023-06-24T05:14:51;2.67;;;1.63;;
79478;SDS011;68943;49.472;17.970;2023-06-24T05:17:18;1.38;;;1.27;;
79478;SDS011;68943;49.472;17.970;2023-06-24T05:19:44;1.55;;;1.40;;
79478;SDS011;68943;49.472;17.970;2023-06-24T05:22:10;1.80;;;1.70;;
79478;SDS011;68943;49.472;17.970;2023-06-24T05:24:36;2.13;;;1.38;;
79478;SDS011;68943;49.472;17.970;2023-06-24T05:27:05;2.65;;;0.60;;
79478;SDS011;68943;49.472;17.970;2023-06-24T05:29:34;1.30;;;0.82;;
79478;SDS011;68943;49.472;17.970;2023-06-24T05:34:28;2.70;;;1.25;;
79478;SDS011;68943;49.472;17.970;2023-06-24T05:36:54;3.08;;;1.35;;
79478;SDS011;68943;49.472;17.970;2023-06-24T05:39:20;1.60;;;1.30;;
79478;SDS011;68943;49.472;17.970;2023-06-24T05:41:46;2.38;;;1.83;;
79478;SDS011;68943;49.472;17.970;2023-06-24T05:44:15;1.88;;;1.75;;
79478;SDS011;68943;49.472;17.970;2023-06-24T05:46:43;1.52;;;0.90;;
79478;SDS011;68943;49.472;17.970;2023-06-24T05:49:09;2.33;;;1.88;;
79478;SDS011;68943;49.472;17.970;2023-06-24T05:51:35;2.78;;;1.25;;
79478;SDS011;68943;49.472;17.970;2023-06-24T05:54:01;1.65;;;1.17;;
79478;SDS011;68943;49.472;17.970;2023-06-24T05:56:28;1.80;;;1.40;;
79478;SDS011;68943;49.472;17.970;2023-06-24T05:58:54;1.45;;;1.15;;
79478;SDS011;68943;49.472;17.970;2023-06-24T06:01:21;3.25;;;1.15;;
79478;SDS011;68943;49.472;17.970;2023-06-24T06:03:47;1.10;;;0.70;;
79478;SDS011;68943;49.472;17.970;2023-06-24T06:06:13;2.40;;;1.23;;
79478;SDS011;68943;49.472;17.970;2023-06-24T06:08:39;1.60;;;1.40;;
79478;SDS011;68943;49.472;17.970;2023-06-24T06:11:05;1.25;;;0.90;;
79478;SDS011;68943;49.472;17.970;2023-06-24T06:13:31;2.42;;;2.10;;
79478;SDS011;68943;49.472;17.970;2023-06-24T06:15:57;2.80;;;1.55;;
79478;SDS011;68943;49.472;17.970;2023-06-24T06:18:23;2.05;;;1.27;;
79478;SDS011;68943;49.472;17.970;2023-06-24T06:20:49;3.10;;;1.88;;
79478;SDS011;68943;49.472;17.970;2023-06-24T06:23:16;1.67;;;1.40;;
79478;SDS011;68943;49.472;17.970;2023-06-24T06:25:42;1.45;;;1.00;;
79478;SDS011;68943;49.472;17.970;2023-06-24T06:28:08;1.45;;;1.20;;
79478;SDS011;68943;49.472;17.970;2023-06-24T06:30:34;2.45;;;1.30;;
79478;SDS011;68943;49.472;17.970;2023-06-24T06:33:00;3.17;;;1.55;;
79478;SDS011;68943;49.472;17.970;2023-06-24T06:35:26;2.50;;;1.92;;
79478;SDS011;68943;49.472;17.970;2023-06-24T06:37:52;1.67;;;1.10;;
79478;SDS011;68943;49.472;17.970;2023-06-24T06:40:20;1.25;;;1.00;;
79478;SDS011;68943;49.472;17.970;2023-06-24T06:42:46;8.45;;;4.53;;
79478;SDS011;68943;49.472;17.970;2023-06-24T06:45:13;15.55;;;6.68;;
79478;SDS011;68943;49.472;17.970;2023-06-24T06:47:39;1.85;;;1.52;;
79478;SDS011;68943;49.472;17.970;2023-06-24T06:50:05;4.97;;;1.15;;
79478;SDS011;68943;49.472;17.970;2023-06-24T06:52:32;2.65;;;1.02;;
79478;SDS011;68943;49.472;17.970;2023-06-24T06:54:58;7.00;;;4.68;;
79478;SDS011;68943;49.472;17.970;2023-06-24T06:57:25;4.80;;;3.08;;
79478;SDS011;68943;49.472;17.970;2023-06-24T06:59:51;2.42;;;1.33;;
79478;SDS011;68943;49.472;17.970;2023-06-24T07:02:18;2.85;;;1.88;;
79478;SDS011;68943;49.472;17.970;2023-06-24T07:04:44;2.95;;;1.85;;
79478;SDS011;68943;49.472;17.970;2023-06-24T07:07:12;4.22;;;2.90;;
79478;SDS011;68943;49.472;17.970;2023-06-24T07:09:38;5.22;;;4.60;;
79478;SDS011;68943;49.472;17.970;2023-06-24T07:12:05;6.78;;;4.15;;
79478;SDS011;68943;49.472;17.970;2023-06-24T07:14:31;6.35;;;5.75;;
79478;SDS011;68943;49.472;17.970;2023-06-24T07:16:58;6.55;;;3.72;;
79478;SDS011;68943;49.472;17.970;2023-06-24T07:19:25;5.93;;;3.85;;
79478;SDS011;68943;49.472;17.970;2023-06-24T07:21:51;7.10;;;4.43;;
79478;SDS011;68943;49.472;17.970;2023-06-24T07:24:17;5.10;;;3.67;;
79478;SDS011;68943;49.472;17.970;2023-06-24T07:26:43;3.78;;;3.08;;
79478;SDS011;68943;49.472;17.970;2023-06-24T07:29:09;3.28;;;1.83;;
79478;SDS011;68943;49.472;17.970;2023-06-24T07:31:36;2.33;;;1.55;;
79478;SDS011;68943;49.472;17.970;2023-06-24T07:34:02;2.72;;;1.27;;
79478;SDS011;68943;49.472;17.970;2023-06-24T07:36:28;1.35;;;0.93;;
79478;SDS011;68943;49.472;17.970;2023-06-24T07:38:54;2.47;;;1.25;;
79478;SDS011;68943;49.472;17.970;2023-06-24T07:41:20;1.35;;;1.25;;
79478;SDS011;68943;49.472;17.970;2023-06-24T07:43:46;2.05;;;0.70;;
79478;SDS011;68943;49.472;17.970;2023-06-24T07:46:12;1.17;;;0.85;;
79478;SDS011;68943;49.472;17.970;2023-06-24T07:48:39;1.35;;;1.27;;
79478;SDS011;68943;49.472;17.970;2023-06-24T07:51:05;2.15;;;0.90;;
79478;SDS011;68943;49.472;17.970;2023-06-24T07:53:31;0.88;;;0.85;;
79478;SDS011;68943;49.472;17.970;2023-06-24T07:56:01;1.10;;;0.77;;
79478;SDS011;68943;49.472;17.970;2023-06-24T07:58:27;2.60;;;0.98;;
79478;SDS011;68943;49.472;17.970;2023-06-24T08:00:53;0.88;;;0.73;;
79478;SDS011;68943;49.472;17.970;2023-06-24T08:03:19;3.75;;;1.00;;
79478;SDS011;68943;49.472;17.970;2023-06-24T08:05:46;1.85;;;1.75;;
79478;SDS011;68943;49.472;17.970;2023-06-24T08:08:17;1.00;;;0.65;;
79478;SDS011;68943;49.472;17.970;2023-06-24T08:10:44;1.20;;;0.90;;
79478;SDS011;68943;49.472;17.970;2023-06-24T08:13:12;2.80;;;1.10;;
79478;SDS011;68943;49.472;17.970;2023-06-24T08:15:38;1.25;;;0.88;;
79478;SDS011;68943;49.472;17.970;2023-06-24T08:18:04;1.48;;;1.38;;
79478;SDS011;68943;49.472;17.970;2023-06-24T08:20:30;1.88;;;1.73;;
79478;SDS011;68943;49.472;17.970;2023-06-24T08:22:56;1.73;;;0.95;;
79478;SDS011;68943;49.472;17.970;2023-06-24T08:25:22;1.90;;;1.15;;
79478;SDS011;68943;49.472;17.970;2023-06-24T08:27:48;5.13;;;1.35;;
79478;SDS011;68943;49.472;17.970;2023-06-24T08:30:14;2.33;;;2.13;;
79478;SDS011;68943;49.472;17.970;2023-06-24T08:32:40;2.80;;;1.73;;
79478;SDS011;68943;49.472;17.970;2023-06-24T08:35:07;1.75;;;1.05;;
79478;SDS011;68943;49.472;17.970;2023-06-24T08:37:34;2.60;;;2.25;;
79478;SDS011;68943;49.472;17.970;2023-06-24T08:40:00;3.10;;;1.65;;
79478;SDS011;68943;49.472;17.970;2023-06-24T08:42:26;3.47;;;2.28;;
79478;SDS011;68943;49.472;17.970;2023-06-24T08:44:52;2.83;;;2.03;;
79478;SDS011;68943;49.472;17.970;2023-06-24T08:47:18;4.22;;;2.15;;
79478;SDS011;68943;49.472;17.970;2023-06-24T08:49:48;4.25;;;2.88;;
79478;SDS011;68943;49.472;17.970;2023-06-24T08:52:21;3.97;;;2.55;;
79478;SDS011;68943;49.472;17.970;2023-06-24T08:54:49;5.53;;;2.78;;
79478;SDS011;68943;49.472;17.970;2023-06-24T08:57:16;5.63;;;3.00;;
79478;SDS011;68943;49.472;17.970;2023-06-24T08:59:43;4.00;;;2.40;;
79478;SDS011;68943;49.472;17.970;2023-06-24T09:02:09;4.45;;;2.63;;
79478;SDS011;68943;49.472;17.970;2023-06-24T09:04:36;4.85;;;2.67;;
79478;SDS011;68943;49.472;17.970;2023-06-24T09:07:02;5.57;;;3.58;;
79478;SDS011;68943;49.472;17.970;2023-06-24T09:09:29;4.72;;;3.47;;
79478;SDS011;68943;49.472;17.970;2023-06-24T09:14:22;5.00;;;2.90;;
79478;SDS011;68943;49.472;17.970;2023-06-24T09:16:54;7.15;;;2.92;;
79478;SDS011;68943;49.472;17.970;2023-06-24T09:19:20;6.90;;;4.30;;
79478;SDS011;68943;49.472;17.970;2023-06-24T09:21:47;4.95;;;3.25;;
79478;SDS011;68943;49.472;17.970;2023-06-24T09:24:13;6.55;;;4.28;;
79478;SDS011;68943;49.472;17.970;2023-06-24T09:26:41;5.55;;;3.67;;
79478;SDS011;68943;49.472;17.970;2023-06-24T09:29:10;7.03;;;4.07;;
79478;SDS011;68943;49.472;17.970;2023-06-24T09:31:45;6.38;;;4.53;;
79478;SDS011;68943;49.472;17.970;2023-06-24T09:34:14;7.38;;;4.20;;
79478;SDS011;68943;49.472;17.970;2023-06-24T09:36:44;10.25;;;4.60;;
79478;SDS011;68943;49.472;17.970;2023-06-24T09:39:11;7.90;;;4.93;;
79478;SDS011;68943;49.472;17.970;2023-06-24T09:41:40;11.15;;;4.22;;
79478;SDS011;68943;49.472;17.970;2023-06-24T09:44:08;8.48;;;5.68;;
79478;SDS011;68943;49.472;17.970;2023-06-24T09:46:34;7.72;;;4.63;;
79478;SDS011;68943;49.472;17.970;2023-06-24T09:49:01;7.65;;;5.25;;
79478;SDS011;68943;49.472;17.970;2023-06-24T09:51:27;7.93;;;5.47;;
79478;SDS011;68943;49.472;17.970;2023-06-24T09:53:53;9.10;;;5.97;;
79478;SDS011;68943;49.472;17.970;2023-06-24T09:56:22;8.40;;;5.93;;
79478;SDS011;68943;49.472;17.970;2023-06-24T09:58:48;8.20;;;4.90;;
79478;SDS011;68943;49.472;17.970;2023-06-24T10:01:15;9.90;;;5.57;;
79478;SDS011;68943;49.472;17.970;2023-06-24T10:03:41;9.05;;;5.78;;
79478;SDS011;68943;49.472;17.970;2023-06-24T10:06:08;7.70;;;6.43;;
79478;SDS011;68943;49.472;17.970;2023-06-24T10:08:34;10.32;;;5.75;;
79478;SDS011;68943;49.472;17.970;2023-06-24T10:11:00;9.50;;;6.53;;
79478;SDS011;68943;49.472;17.970;2023-06-24T10:13:27;8.50;;;5.38;;
79478;SDS011;68943;49.472;17.970;2023-06-24T10:15:54;9.70;;;6.80;;
79478;SDS011;68943;49.472;17.970;2023-06-24T10:20:56;11.90;;;6.50;;
79478;SDS011;68943;49.472;17.970;2023-06-24T10:23:38;8.23;;;6.63;;
79478;SDS011;68943;49.472;17.970;2023-06-24T10:26:24;10.55;;;6.18;;
79478;SDS011;68943;49.472;17.970;2023-06-24T10:36:55;9.65;;;6.05;;
79478;SDS011;68943;49.472;17.970;2023-06-24T10:42:49;8.23;;;5.68;;
79478;SDS011;68943;49.472;17.970;2023-06-24T10:44:59;10.43;;;6.13;;
79478;SDS011;68943;49.472;17.970;2023-06-24T10:47:25;15.75;;;5.13;;
79478;SDS011;68943;49.472;17.970;2023-06-24T10:49:52;7.85;;;4.68;;
79478;SDS011;68943;49.472;17.970;2023-06-24T10:52:21;8.02;;;4.93;;
79478;SDS011;68943;49.472;17.970;2023-06-24T10:54:50;6.93;;;4.72;;
79478;SDS011;68943;49.472;17.970;2023-06-24T10:57:20;7.65;;;5.43;;
79478;SDS011;68943;49.472;17.970;2023-06-24T10:59:49;7.40;;;4.43;;
79478;SDS011;68943;49.472;17.970;2023-06-24T11:02:19;7.60;;;4.70;;
79478;SDS011;68943;49.472;17.970;2023-06-24T11:07:31;8.00;;;5.35;;
79478;SDS011;68943;49.472;17.970;2023-06-24T11:10:01;6.20;;;4.05;;
79478;SDS011;68943;49.472;17.970;2023-06-24T11:12:35;7.05;;;5.13;;
79478;SDS011;68943;49.472;17.970;2023-06-24T11:15:02;6.82;;;5.95;;
79478;SDS011;68943;49.472;17.970;2023-06-24T11:17:29;10.45;;;6.50;;
79478;SDS011;68943;49.472;17.970;2023-06-24T11:19:56;9.00;;;7.38;;
79478;SDS011;68943;49.472;17.970;2023-06-24T11:22:22;9.50;;;7.30;;
79478;SDS011;68943;49.472;17.970;2023-06-24T11:24:50;7.47;;;5.28;;
79478;SDS011;68943;49.472;17.970;2023-06-24T11:27:16;9.60;;;5.88;;
79478;SDS011;68943;49.472;17.970;2023-06-24T11:29:43;9.38;;;5.25;;
79478;SDS011;68943;49.472;17.970;2023-06-24T11:32:10;7.22;;;5.28;;
79478;SDS011;68943;49.472;17.970;2023-06-24T11:34:36;7.38;;;5.18;;
79478;SDS011;68943;49.472;17.970;2023-06-24T11:37:12;8.38;;;4.97;;
79478;SDS011;68943;49.472;17.970;2023-06-24T11:39:39;7.63;;;5.53;;
79478;SDS011;68943;49.472;17.970;2023-06-24T11:42:08;8.75;;;6.20;;
79478;SDS011;68943;49.472;17.970;2023-06-24T11:44:40;9.02;;;5.28;;
79478;SDS011;68943;49.472;17.970;2023-06-24T11:49:51;6.80;;;4.97;;
79478;SDS011;68943;49.472;17.970;2023-06-24T11:52:18;8.25;;;5.85;;
79478;SDS011;68943;49.472;17.970;2023-06-24T11:54:46;7.20;;;5.72;;
79478;SDS011;68943;49.472;17.970;2023-06-24T11:57:16;8.35;;;5.07;;
79478;SDS011;68943;49.472;17.970;2023-06-24T11:59:42;6.72;;;4.88;;
79478;SDS011;68943;49.472;17.970;2023-06-24T12:02:12;7.25;;;3.88;;
79478;SDS011;68943;49.472;17.970;2023-06-24T12:04:43;6.28;;;5.30;;
79478;SDS011;68943;49.472;17.970;2023-06-24T12:07:09;7.68;;;5.25;;
79478;SDS011;68943;49.472;17.970;2023-06-24T12:09:36;6.13;;;3.75;;
79478;SDS011;68943;49.472;17.970;2023-06-24T12:12:03;8.07;;;5.70;;
79478;SDS011;68943;49.472;17.970;2023-06-24T12:14:31;7.82;;;7.03;;
79478;SDS011;68943;49.472;17.970;2023-06-24T12:16:59;7.15;;;4.60;;
79478;SDS011;68943;49.472;17.970;2023-06-24T12:19:27;8.75;;;6.22;;
79478;SDS011;68943;49.472;17.970;2023-06-24T12:21:53;5.38;;;3.42;;
79478;SDS011;68943;49.472;17.970;2023-06-24T12:24:19;6.90;;;4.82;;
79478;SDS011;68943;49.472;17.970;2023-06-24T12:26:45;5.75;;;3.88;;
79478;SDS011;68943;49.472;17.970;2023-06-24T12:29:11;6.65;;;5.15;;
79478;SDS011;68943;49.472;17.970;2023-06-24T12:31:37;6.28;;;3.60;;
79478;SDS011;68943;49.472;17.970;2023-06-24T12:34:04;6.55;;;3.60;;
79478;SDS011;68943;49.472;17.970;2023-06-24T12:36:30;6.78;;;4.40;;
79478;SDS011;68943;49.472;17.970;2023-06-24T12:38:56;5.78;;;4.60;;
79478;SDS011;68943;49.472;17.970;2023-06-24T12:41:22;7.25;;;5.28;;
79478;SDS011;68943;49.472;17.970;2023-06-24T12:43:50;6.38;;;3.88;;
79478;SDS011;68943;49.472;17.970;2023-06-24T12:46:16;6.03;;;3.90;;
79478;SDS011;68943;49.472;17.970;2023-06-24T12:48:42;6.57;;;3.28;;
79478;SDS011;68943;49.472;17.970;2023-06-24T12:51:08;5.00;;;2.95;;
79478;SDS011;68943;49.472;17.970;2023-06-24T12:53:35;5.78;;;4.18;;
79478;SDS011;68943;49.472;17.970;2023-06-24T12:56:01;6.60;;;4.53;;
79478;SDS011;68943;49.472;17.970;2023-06-24T12:58:26;4.15;;;3.13;;
79478;SDS011;68943;49.472;17.970;2023-06-24T13:00:52;12.75;;;6.82;;
79478;SDS011;68943;49.472;17.970;2023-06-24T13:03:19;9.48;;;5.53;;
79478;SDS011;68943;49.472;17.970;2023-06-24T13:05:45;7.55;;;4.05;;
79478;SDS011;68943;49.472;17.970;2023-06-24T13:08:11;9.82;;;4.43;;
79478;SDS011;68943;49.472;17.970;2023-06-24T13:10:38;5.30;;;3.08;;
79478;SDS011;68943;49.472;17.970;2023-06-24T13:13:05;5.30;;;3.60;;
79478;SDS011;68943;49.472;17.970;2023-06-24T13:15:31;6.22;;;3.28;;
79478;SDS011;68943;49.472;17.970;2023-06-24T13:17:59;5.43;;;3.55;;
79478;SDS011;68943;49.472;17.970;2023-06-24T13:20:26;4.90;;;3.78;;
79478;SDS011;68943;49.472;17.970;2023-06-24T13:22:52;5.50;;;4.03;;
79478;SDS011;68943;49.472;17.970;2023-06-24T13:25:18;6.25;;;3.78;;
79478;SDS011;68943;49.472;17.970;2023-06-24T13:27:46;5.57;;;3.40;;
79478;SDS011;68943;49.472;17.970;2023-06-24T13:30:12;6.57;;;2.65;;
79478;SDS011;68943;49.472;17.970;2023-06-24T13:32:40;6.93;;;3.97;;
79478;SDS011;68943;49.472;17.970;2023-06-24T13:35:06;9.77;;;4.63;;
79478;SDS011;68943;49.472;17.970;2023-06-24T13:37:32;7.75;;;4.25;;
79478;SDS011;68943;49.472;17.970;2023-06-24T13:39:58;6.43;;;3.97;;
79478;SDS011;68943;49.472;17.970;2023-06-24T13:42:24;7.18;;;4.38;;
79478;SDS011;68943;49.472;17.970;2023-06-24T13:44:51;5.45;;;4.72;;
79478;SDS011;68943;49.472;17.970;2023-06-24T13:47:18;7.10;;;4.82;;
79478;SDS011;68943;49.472;17.970;2023-06-24T13:49:44;5.78;;;4.18;;
79478;SDS011;68943;49.472;17.970;2023-06-24T13:52:10;7.90;;;4.40;;
79478;SDS011;68943;49.472;17.970;2023-06-24T13:54:36;12.45;;;4.03;;
79478;SDS011;68943;49.472;17.970;2023-06-24T13:57:02;6.55;;;5.03;;
79478;SDS011;68943;49.472;17.970;2023-06-24T13:59:28;5.50;;;3.78;;
79478;SDS011;68943;49.472;17.970;2023-06-24T14:01:58;5.50;;;4.10;;
79478;SDS011;68943;49.472;17.970;2023-06-24T14:04:24;6.60;;;3.92;;
79478;SDS011;68943;49.472;17.970;2023-06-24T14:06:50;7.25;;;4.22;;
79478;SDS011;68943;49.472;17.970;2023-06-24T14:09:16;6.63;;;4.22;;
79478;SDS011;68943;49.472;17.970;2023-06-24T14:11:42;8.95;;;6.10;;
79478;SDS011;68943;49.472;17.970;2023-06-24T14:14:08;7.80;;;4.47;;
79478;SDS011;68943;49.472;17.970;2023-06-24T14:16:35;6.88;;;4.30;;
79478;SDS011;68943;49.472;17.970;2023-06-24T14:19:01;8.20;;;3.78;;
79478;SDS011;68943;49.472;17.970;2023-06-24T14:21:27;6.78;;;4.32;;
79478;SDS011;68943;49.472;17.970;2023-06-24T14:23:56;6.30;;;4.15;;
79478;SDS011;68943;49.472;17.970;2023-06-24T14:26:22;6.40;;;4.13;;
79478;SDS011;68943;49.472;17.970;2023-06-24T14:28:48;5.82;;;3.65;;
79478;SDS011;68943;49.472;17.970;2023-06-24T14:31:14;4.60;;;3.35;;
79478;SDS011;68943;49.472;17.970;2023-06-24T14:33:40;6.72;;;3.88;;
79478;SDS011;68943;49.472;17.970;2023-06-24T14:36:08;5.40;;;3.88;;
79478;SDS011;68943;49.472;17.970;2023-06-24T14:38:34;7.05;;;4.43;;
79478;SDS011;68943;49.472;17.970;2023-06-24T14:41:00;6.30;;;3.20;;
79478;SDS011;68943;49.472;17.970;2023-06-24T14:43:26;6.72;;;4.18;;
79478;SDS011;68943;49.472;17.970;2023-06-24T14:45:52;5.47;;;3.20;;
79478;SDS011;68943;49.472;17.970;2023-06-24T14:48:19;6.68;;;3.25;;
79478;SDS011;68943;49.472;17.970;2023-06-24T14:50:46;5.35;;;3.22;;
79478;SDS011;68943;49.472;17.970;2023-06-24T14:53:12;6.28;;;3.78;;
79478;SDS011;68943;49.472;17.970;2023-06-24T14:55:38;7.35;;;3.88;;
79478;SDS011;68943;49.472;17.970;2023-06-24T14:58:04;7.55;;;3.80;;
79478;SDS011;68943;49.472;17.970;2023-06-24T15:00:30;6.95;;;3.92;;
79478;SDS011;68943;49.472;17.970;2023-06-24T15:02:56;6.90;;;4.45;;
79478;SDS011;68943;49.472;17.970;2023-06-24T15:05:23;7.97;;;5.15;;
79478;SDS011;68943;49.472;17.970;2023-06-24T15:07:49;5.90;;;4.18;;
79478;SDS011;68943;49.472;17.970;2023-06-24T15:10:15;7.82;;;4.85;;
79478;SDS011;68943;49.472;17.970;2023-06-24T15:12:41;7.53;;;4.57;;
79478;SDS011;68943;49.472;17.970;2023-06-24T15:15:07;5.43;;;3.92;;
79478;SDS011;68943;49.472;17.970;2023-06-24T15:17:33;5.53;;;3.63;;